Time;durP1;ratioP1;P1;durP2;ratioP2;P2;SDS_P1;SDS_P2;PMS_P1;PMS_P2;Temp;Humidity;BMP_temperature;BMP_pressure;BME280_temperature;BME280_humidity;BME280_pressure;Samples;Min_cycle;Max_cycle;Signal;HPM_P1;HPM_P2
2023/03/22 00:02:24;;;;;;;0.10;0.10;;;10.20;99.90;29.40;100750.00;;;;5031855;28;20231;-74
2023/03/22 00:04:53;;;;;;;0.10;0.10;;;10.20;99.90;29.40;100769.00;;;;5029620;28;20191;-74
2023/03/22 00:07:21;;;;;;;0.10;0.10;;;10.30;99.90;29.40;100753.00;;;;5028949;28;20393;-74
2023/03/22 00:09:49;;;;;;;0.10;0.10;;;10.20;99.90;29.40;100768.00;;;;5013748;28;20249;-74
2023/03/22 00:12:17;;;;;;;0.10;0.10;;;10.20;99.90;29.30;100779.00;;;;5035693;28;20276;-74
2023/03/22 00:14:45;;;;;;;0.10;0.10;;;10.10;99.90;29.30;100766.00;;;;5035838;28;20686;-72
2023/03/22 00:17:13;;;;;;;0.10;0.10;;;10.10;99.90;29.30;100801.00;;;;5039856;28;20195;-73
2023/03/22 00:19:43;;;;;;;0.10;0.10;;;10.10;99.90;29.30;100805.00;;;;5038579;28;20315;-72
2023/03/22 00:22:15;;;;;;;0.10;0.10;;;10.10;99.90;29.30;100797.00;;;;5031563;28;20272;-72
2023/03/22 00:24:43;;;;;;;0.10;0.10;;;10.10;99.90;29.20;100837.00;;;;5038305;28;20198;-72
2023/03/22 00:27:11;;;;;;;0.10;0.10;;;10.00;99.90;29.30;100838.00;;;;5031529;28;20191;-72
2023/03/22 00:29:39;;;;;;;0.10;0.10;;;10.00;99.90;29.30;100856.00;;;;5013452;28;20237;-72
2023/03/22 00:32:07;;;;;;;0.10;0.10;;;10.10;99.90;29.20;100861.00;;;;5011360;28;20270;-72
2023/03/22 00:34:35;;;;;;;0.10;0.10;;;10.00;99.90;29.10;100897.00;;;;5019612;28;20813;-72
2023/03/22 00:37:04;;;;;;;0.10;0.10;;;9.90;99.90;29.20;101050.00;;;;5006839;28;20203;-72
2023/03/22 00:39:33;;;;;;;0.10;0.10;;;9.90;99.90;29.10;101137.00;;;;5010601;28;20333;-72
2023/03/22 00:42:03;;;;;;;0.10;0.10;;;9.90;99.90;29.10;101107.00;;;;5030596;28;20284;-72
2023/03/22 00:44:31;;;;;;;0.10;0.10;;;9.80;99.90;29.10;100996.00;;;;5030838;28;20728;-72
2023/03/22 00:46:59;;;;;;;0.10;0.10;;;9.80;99.90;29.00;100997.00;;;;5030277;28;20195;-72
2023/03/22 00:49:28;;;;;;;0.10;0.10;;;9.70;99.90;29.00;100967.00;;;;5036932;28;20693;-74
2023/03/22 00:51:56;;;;;;;0.10;0.10;;;9.70;99.90;29.00;101036.00;;;;5023493;28;20693;-73
2023/03/22 00:54:25;;;;;;;0.00;0.00;;;9.70;99.90;29.00;100937.00;;;;5010364;28;20381;-73
2023/03/22 00:56:53;;;;;;;0.10;0.10;;;9.60;99.90;29.00;100961.00;;;;5022533;28;20199;-72
2023/03/22 00:59:22;;;;;;;0.10;0.10;;;9.70;99.90;29.00;100983.00;;;;5014643;28;20230;-72
2023/03/22 01:01:50;;;;;;;0.10;0.10;;;9.70;99.90;28.90;100980.00;;;;5017342;28;20768;-74
2023/03/22 01:04:24;;;;;;;0.10;0.10;;;9.60;99.90;29.00;100996.00;;;;5015021;28;20633;-74
2023/03/22 01:06:58;;;;;;;0.10;0.10;;;9.60;99.90;28.90;100980.00;;;;5037227;28;20685;-74
2023/03/22 01:09:29;;;;;;;0.10;0.10;;;9.60;99.90;28.90;100992.00;;;;5011437;28;20215;-74
2023/03/22 01:11:58;;;;;;;0.10;0.10;;;9.50;99.90;28.90;101016.00;;;;5035677;28;20222;-74
2023/03/22 01:14:27;;;;;;;0.10;0.10;;;9.50;99.90;28.90;100997.00;;;;5008225;28;20207;-74
2023/03/22 01:16:56;;;;;;;0.10;0.10;;;9.60;99.90;28.90;100867.00;;;;5028169;28;20861;-74
2023/03/22 01:19:26;;;;;;;0.10;0.10;;;9.60;99.90;28.90;100866.00;;;;5021872;28;20265;-74
2023/03/22 01:21:54;;;;;;;0.05;0.05;;;9.60;99.90;28.90;100816.00;;;;5030140;28;20234;-74
2023/03/22 01:24:23;;;;;;;0.10;0.10;;;9.50;99.90;28.80;100758.00;;;;5022968;28;20647;-75
2023/03/22 01:26:52;;;;;;;0.10;0.10;;;9.40;99.90;28.80;100757.00;;;;5013674;28;20203;-74
2023/03/22 01:29:20;;;;;;;0.10;0.10;;;9.40;99.90;28.80;100770.00;;;;5033819;28;20207;-75
2023/03/22 01:31:49;;;;;;;0.10;0.10;;;9.40;99.90;28.80;100759.00;;;;5014600;28;20757;-74
2023/03/22 01:34:17;;;;;;;0.10;0.10;;;9.30;99.90;28.70;100737.00;;;;5028494;28;20194;-75
2023/03/22 01:36:46;;;;;;;0.10;0.10;;;9.30;99.90;28.70;100741.00;;;;5015772;28;20666;-74
2023/03/22 01:39:15;;;;;;;0.08;0.08;;;9.30;99.90;28.70;100750.00;;;;5015613;28;20260;-74
2023/03/22 01:41:45;;;;;;;0.10;0.10;;;9.30;99.90;28.70;100741.00;;;;5015538;28;20216;-74
2023/03/22 01:44:20;;;;;;;0.10;0.10;;;9.30;99.90;28.70;100738.00;;;;5013808;28;20206;-75
2023/03/22 01:46:51;;;;;;;0.10;0.10;;;9.30;99.90;28.70;100734.00;;;;5015321;28;20198;-74
2023/03/22 01:49:27;;;;;;;0.10;0.10;;;9.20;99.90;28.70;100720.00;;;;5011812;28;20732;-74
2023/03/22 01:52:00;;;;;;;0.10;0.10;;;9.20;99.90;28.70;100731.00;;;;5019428;28;20218;-74
2023/03/22 01:54:53;;;;;;;0.10;0.10;;;9.20;99.90;28.70;100729.00;;;;5011245;28;20574;-74
2023/03/22 01:57:32;;;;;;;0.10;0.10;;;9.20;99.90;28.70;100740.00;;;;5013563;28;20213;-74
2023/03/22 02:00:07;;;;;;;0.10;0.10;;;9.20;99.90;28.70;100760.00;;;;5015069;28;20272;-74
2023/03/22 02:02:54;;;;;;;0.10;0.10;;;9.20;99.90;28.70;100756.00;;;;5033443;28;20238;-74
2023/03/22 02:05:31;;;;;;;0.10;0.10;;;9.20;99.90;28.60;100728.00;;;;5015043;28;20198;-74
2023/03/22 02:08:01;;;;;;;0.10;0.10;;;9.10;99.90;28.60;100755.00;;;;5037892;28;20194;-74
2023/03/22 02:10:38;;;;;;;0.10;0.10;;;9.20;99.90;28.60;100760.00;;;;5017383;28;20211;-74
2023/03/22 02:13:25;;;;;;;0.10;0.10;;;9.20;99.90;28.60;100738.00;;;;5015125;28;20512;-75
2023/03/22 02:16:26;;;;;;;0.10;0.10;;;9.00;99.90;28.50;100743.00;;;;5014430;28;20290;-75
2023/03/22 02:19:31;;;;;;;0.10;0.10;;;9.00;99.90;28.60;100772.00;;;;5021928;28;20290;-74
2023/03/22 02:22:37;;;;;;;0.10;0.10;;;9.10;99.90;28.60;100774.00;;;;5024461;28;20215;-73
2023/03/22 02:25:59;;;;;;;0.10;0.10;;;9.10;99.90;28.60;100779.00;;;;5015036;28;20207;-74
2023/03/22 02:28:42;;;;;;;0.10;0.10;;;9.10;99.90;28.60;100791.00;;;;5005679;28;20199;-74
2023/03/22 02:31:55;;;;;;;0.10;0.10;;;9.10;99.90;28.60;100783.00;;;;5014726;28;20227;-73
2023/03/22 02:35:02;;;;;;;0.10;0.10;;;9.10;99.90;28.70;100812.00;;;;5010692;28;20199;-74
2023/03/22 02:38:06;;;;;;;0.10;0.10;;;9.30;99.90;28.70;100799.00;;;;5008318;28;20209;-75
2023/03/22 02:40:47;;;;;;;0.10;0.10;;;9.30;99.90;28.70;100815.00;;;;5024863;28;20647;-75
2023/03/22 02:43:29;;;;;;;0.10;0.10;;;9.30;99.90;28.70;100786.00;;;;5032412;28;20210;-74
2023/03/22 02:46:07;;;;;;;0.10;0.10;;;9.40;99.90;28.70;100778.00;;;;5029122;28;20191;-75
2023/03/22 02:48:44;;;;;;;0.10;0.10;;;9.30;99.90;28.60;100772.00;;;;5013020;28;20286;-74
2023/03/22 02:51:21;;;;;;;0.10;0.10;;;9.20;99.90;28.60;100756.00;;;;5021918;28;20225;-74
2023/03/22 02:53:57;;;;;;;0.10;0.10;;;9.10;99.90;28.50;100756.00;;;;5014428;28;20213;-75
2023/03/22 02:56:32;;;;;;;0.10;0.10;;;9.00;99.90;28.50;100773.00;;;;5013076;28;20585;-74
2023/03/22 02:59:05;;;;;;;0.10;0.10;;;9.00;99.90;28.50;100770.00;;;;5013158;28;20289;-74
2023/03/22 03:01:38;;;;;;;0.10;0.10;;;9.10;99.90;28.40;100792.00;;;;5013929;28;20231;-75
2023/03/22 03:04:14;;;;;;;0.10;0.10;;;9.00;99.90;28.40;100776.00;;;;5038504;28;20199;-75
2023/03/22 03:06:47;;;;;;;0.10;0.10;;;9.00;99.90;28.40;100789.00;;;;5023763;28;20217;-74
2023/03/22 03:09:19;;;;;;;0.10;0.10;;;8.90;99.90;28.20;100744.00;;;;5034865;28;20217;-74
2023/03/22 03:11:52;;;;;;;0.10;0.10;;;8.70;99.90;28.20;100759.00;;;;5014079;28;20223;-74
2023/03/22 03:14:24;;;;;;;0.10;0.10;;;8.60;99.90;28.00;100743.00;;;;5027639;28;20253;-75
2023/03/22 03:17:10;;;;;;;0.10;0.10;;;8.40;99.90;28.00;100736.00;;;;5021591;28;20199;-74
2023/03/22 03:19:51;;;;;;;0.10;0.10;;;8.40;99.90;27.90;100762.00;;;;5038406;28;20198;-74
2023/03/22 03:22:40;;;;;;;0.10;0.10;;;8.30;99.90;27.90;100771.00;;;;5013753;28;20596;-75
2023/03/22 03:25:21;;;;;;;0.10;0.10;;;8.30;99.90;27.90;100816.00;;;;5035196;28;20201;-75
2023/03/22 03:28:02;;;;;;;0.10;0.10;;;8.30;99.90;27.90;101344.00;;;;5008744;28;20265;-75
2023/03/22 03:30:39;;;;;;;0.10;0.10;;;8.20;99.90;27.80;101307.00;;;;5013677;28;20709;-75
2023/03/22 03:33:17;;;;;;;0.10;0.10;;;8.20;99.90;27.90;101393.00;;;;5005623;28;20219;-76
2023/03/22 03:35:53;;;;;;;0.10;0.10;;;8.20;99.90;27.80;101387.00;;;;5034332;28;20257;-75
2023/03/22 03:38:27;;;;;;;0.10;0.10;;;8.10;99.90;27.80;101455.00;;;;5029970;28;20187;-75
2023/03/22 03:41:01;;;;;;;0.10;0.10;;;8.10;99.90;27.80;101570.00;;;;5013306;28;20700;-75
2023/03/22 03:43:32;;;;;;;0.10;0.10;;;8.10;99.90;27.80;101464.00;;;;5013707;28;20245;-74
2023/03/22 03:46:00;;;;;;;0.10;0.10;;;8.10;99.90;27.70;101413.00;;;;5013600;28;20261;-74
2023/03/22 03:48:32;;;;;;;0.10;0.10;;;8.00;99.90;27.70;101530.00;;;;5011665;28;20666;-76
2023/03/22 03:51:02;;;;;;;0.10;0.10;;;8.00;99.90;27.70;101642.00;;;;5019272;28;20195;-76
2023/03/22 03:53:31;;;;;;;0.10;0.10;;;7.90;99.90;27.70;101671.00;;;;5013934;28;20238;-77
2023/03/22 03:55:59;;;;;;;0.10;0.10;;;7.80;99.90;27.70;101720.00;;;;5031955;28;20217;-77
2023/03/22 03:58:35;;;;;;;0.10;0.10;;;7.80;99.90;27.70;101633.00;;;;5013989;28;20244;-76
2023/03/22 04:01:04;;;;;;;0.10;0.10;;;7.90;99.90;27.70;101736.00;;;;5010264;28;20313;-75
2023/03/22 04:04:02;;;;;;;0.10;0.10;;;7.90;99.90;27.70;101621.00;;;;5013026;28;20210;-75
2023/03/22 04:06:39;;;;;;;0.10;0.10;;;7.80;99.90;27.60;101619.00;;;;5016340;28;20217;-75
2023/03/22 04:09:16;;;;;;;0.10;0.10;;;7.80;99.90;27.60;101627.00;;;;5035647;28;20210;-74
2023/03/22 04:11:48;;;;;;;0.10;0.10;;;7.70;99.90;27.70;101646.00;;;;5012606;28;20609;-74
2023/03/22 04:14:18;;;;;;;0.10;0.10;;;7.80;99.90;27.70;101619.00;;;;5013454;28;20210;-74
2023/03/22 04:16:53;;;;;;;0.10;0.10;;;7.80;99.90;27.60;101572.00;;;;5020494;28;20198;-74
2023/03/22 04:19:23;;;;;;;0.10;0.10;;;7.70;99.90;27.60;101600.00;;;;5013178;28;20702;-74
2023/03/22 04:21:51;;;;;;;0.10;0.10;;;7.70;99.90;27.60;101617.00;;;;5006938;28;20235;-74
2023/03/22 04:24:21;;;;;;;0.10;0.10;;;7.80;99.90;27.70;101617.00;;;;5026285;28;20203;-73
2023/03/22 04:26:52;;;;;;;0.10;0.10;;;7.80;99.90;27.70;101560.00;;;;5012887;28;20257;-73
2023/03/22 04:29:35;;;;;;;0.10;0.10;;;7.80;99.90;27.70;101555.00;;;;5006787;28;20206;-74
2023/03/22 04:32:25;;;;;;;0.10;0.10;;;7.80;99.90;27.70;101569.00;;;;5014925;28;20246;-74
2023/03/22 04:34:54;;;;;;;0.10;0.10;;;7.90;99.90;27.70;101563.00;;;;5013405;28;20195;-74
2023/03/22 04:37:25;;;;;;;0.10;0.10;;;7.90;99.90;27.80;101500.00;;;;5030730;28;20194;-73
2023/03/22 04:40:06;;;;;;;0.10;0.10;;;7.90;99.90;27.80;101479.00;;;;5012151;28;20230;-73
2023/03/22 04:42:40;;;;;;;0.10;0.10;;;8.00;99.90;27.80;101477.00;;;;5024036;28;20238;-74
2023/03/22 04:45:17;;;;;;;0.10;0.10;;;7.90;99.90;27.80;101481.00;;;;5008178;28;20206;-74
2023/03/22 04:47:51;;;;;;;0.10;0.10;;;8.00;99.90;27.90;101484.00;;;;5028923;28;20202;-73
2023/03/22 04:50:20;;;;;;;0.10;0.10;;;8.10;99.90;27.90;101473.00;;;;5011528;28;20309;-74
2023/03/22 04:52:52;;;;;;;0.10;0.10;;;8.10;99.90;27.90;101469.00;;;;4999717;28;20231;-74
2023/03/22 04:55:20;;;;;;;0.10;0.10;;;8.00;99.90;27.90;101498.00;;;;5018915;28;20199;-74
2023/03/22 04:57:49;;;;;;;0.10;0.10;;;8.10;99.90;27.90;101514.00;;;;5008865;28;20196;-73
2023/03/22 05:00:20;;;;;;;0.10;0.10;;;8.10;99.90;27.90;101494.00;;;;4998829;28;20261;-74
2023/03/22 05:02:49;;;;;;;0.10;0.10;;;8.10;99.90;27.90;101475.00;;;;5013214;28;20648;-74
2023/03/22 05:05:26;;;;;;;0.10;0.10;;;8.00;99.90;27.90;101503.00;;;;5023120;28;20214;-74
2023/03/22 05:07:55;;;;;;;0.10;0.10;;;8.10;99.90;27.90;101506.00;;;;5016060;28;20191;-74
2023/03/22 05:10:24;;;;;;;0.10;0.10;;;8.10;99.90;27.90;101497.00;;;;5032772;28;20249;-74
2023/03/22 05:12:53;;;;;;;0.10;0.10;;;8.10;99.90;27.90;101563.00;;;;5016150;28;20592;-74
2023/03/22 05:15:31;;;;;;;0.10;0.10;;;8.10;99.90;27.90;101647.00;;;;5014611;28;20226;-74
2023/03/22 05:18:01;;;;;;;0.10;0.10;;;8.10;99.90;27.90;101493.00;;;;5000687;28;20199;-74
2023/03/22 05:20:28;;;;;;;0.10;0.10;;;8.10;99.90;27.90;101498.00;;;;5022276;28;20211;-74
2023/03/22 05:23:09;;;;;;;0.10;0.10;;;8.10;99.90;27.90;101501.00;;;;5015476;28;20238;-75
2023/03/22 05:25:43;;;;;;;0.10;0.10;;;8.10;99.90;27.90;101532.00;;;;5015574;28;20214;-74
2023/03/22 05:28:13;;;;;;;0.10;0.10;;;8.10;99.90;27.80;101492.00;;;;5015765;28;20346;-75
2023/03/22 05:30:50;;;;;;;0.10;0.10;;;8.00;99.90;27.80;101483.00;;;;5013679;28;20194;-74
2023/03/22 05:33:41;;;;;;;0.10;0.10;;;7.90;99.90;27.80;101505.00;;;;5023268;28;20200;-74
2023/03/22 05:36:12;;;;;;;0.10;0.10;;;7.90;99.90;27.70;101556.00;;;;5018139;28;20203;-74
2023/03/22 05:38:56;;;;;;;0.10;0.10;;;7.80;99.90;27.70;101516.00;;;;5013538;28;20248;-74
2023/03/22 05:41:24;;;;;;;0.10;0.10;;;7.80;99.90;27.70;101501.00;;;;5014985;28;20662;-74
2023/03/22 05:43:52;;;;;;;0.10;0.10;;;7.80;99.90;27.80;101623.00;;;;5014812;28;20525;-74
2023/03/22 05:46:21;;;;;;;0.10;0.10;;;7.80;99.90;27.80;101460.00;;;;5013371;28;20735;-74
2023/03/22 05:49:12;;;;;;;0.10;0.10;;;7.90;99.90;27.80;101448.00;;;;5031731;28;20194;-74
2023/03/22 05:51:41;;;;;;;0.10;0.10;;;7.90;99.90;27.90;101463.00;;;;5031857;28;20639;-74
2023/03/22 05:54:11;;;;;;;0.10;0.10;;;8.00;99.90;27.90;101462.00;;;;5016087;28;20203;-74
2023/03/22 05:56:46;;;;;;;0.10;0.10;;;8.00;99.90;28.00;99983.00;;;;5014235;28;20206;-73
2023/03/22 05:59:15;;;;;;;0.10;0.10;;;8.00;99.90;28.00;99555.00;;;;5016748;28;20560;-74
2023/03/22 06:01:44;;;;;;;0.10;0.10;;;8.00;99.90;28.00;99635.00;;;;5014280;28;20310;-74
2023/03/22 06:04:21;;;;;;;0.10;0.10;;;8.00;99.90;28.00;99672.00;;;;5017081;28;20645;-74
2023/03/22 06:06:56;;;;;;;0.10;0.10;;;8.00;99.90;28.00;99758.00;;;;5015519;28;20201;-74
2023/03/22 06:09:35;;;;;;;0.10;0.10;;;8.10;99.90;28.00;99586.00;;;;5006243;28;20759;-74
2023/03/22 06:12:07;;;;;;;0.10;0.10;;;8.10;99.90;28.10;99583.00;;;;5012385;28;20706;-74
2023/03/22 06:14:36;;;;;;;0.10;0.10;;;8.00;99.90;28.10;99608.00;;;;5032921;28;20195;-74
2023/03/22 06:17:28;;;;;;;0.10;0.10;;;8.00;99.90;28.10;99555.00;;;;5016758;28;20199;-75
2023/03/22 06:19:56;;;;;;;0.10;0.10;;;8.00;99.90;28.00;99739.00;;;;5032790;28;20202;-74
2023/03/22 06:22:25;;;;;;;0.10;0.10;;;8.00;99.90;28.10;99538.00;;;;5032780;28;20309;-75
2023/03/22 06:24:53;;;;;;;0.10;0.10;;;8.10;99.90;28.10;99739.00;;;;5014586;28;20222;-75
2023/03/22 06:27:30;;;;;;;0.10;0.10;;;8.10;99.90;28.10;99667.00;;;;5014933;28;20203;-74
2023/03/22 06:29:59;;;;;;;0.10;0.10;;;8.20;99.90;28.10;99732.00;;;;5032935;28;20242;-74
2023/03/22 06:32:28;;;;;;;0.10;0.10;;;8.20;99.90;28.10;100006.00;;;;5016979;28;20229;-74
2023/03/22 06:34:57;;;;;;;0.10;0.10;;;8.20;99.90;28.20;99782.00;;;;5014585;28;20811;-74
2023/03/22 06:37:26;;;;;;;0.10;0.10;;;8.30;99.90;28.30;99514.00;;;;5014865;28;20199;-75
2023/03/22 06:39:55;;;;;;;0.10;0.10;;;8.30;99.90;28.30;99452.00;;;;5014442;28;20314;-74
2023/03/22 06:42:25;;;;;;;0.10;0.10;;;8.40;99.90;28.30;99573.00;;;;5014541;28;20223;-74
2023/03/22 06:45:05;;;;;;;0.10;0.10;;;8.40;99.90;28.40;99538.00;;;;5012674;28;20279;-75
2023/03/22 06:47:37;;;;;;;0.10;0.10;;;8.50;99.90;28.40;99527.00;;;;5006055;28;20202;-74
2023/03/22 06:50:06;;;;;;;0.10;0.10;;;8.50;99.90;28.40;99757.00;;;;5029926;28;20199;-75
2023/03/22 06:52:53;;;;;;;0.10;0.10;;;8.60;99.90;28.40;99757.00;;;;5010580;28;20310;-75
2023/03/22 06:55:21;;;;;;;0.10;0.10;;;8.60;99.90;28.50;99576.00;;;;5013101;28;20268;-75
2023/03/22 06:57:49;;;;;;;0.10;0.10;;;8.70;99.90;28.50;99935.00;;;;5004831;28;20210;-75
2023/03/22 07:00:18;;;;;;;0.10;0.10;;;8.70;99.90;28.50;99880.00;;;;5032166;28;20373;-75
2023/03/22 07:02:48;;;;;;;0.10;0.10;;;8.80;99.90;28.50;99834.00;;;;5014542;28;20641;-74
2023/03/22 07:05:27;;;;;;;0.10;0.10;;;8.80;99.90;28.60;99734.00;;;;5027146;28;20245;-74
2023/03/22 07:07:56;;;;;;;0.10;0.10;;;8.90;99.90;28.60;99865.00;;;;5028618;28;20273;-74
2023/03/22 07:10:26;;;;;;;0.10;0.10;;;9.00;99.90;28.70;99812.00;;;;5014827;28;20640;-74
2023/03/22 07:12:54;;;;;;;0.10;0.10;;;9.00;99.90;28.70;100184.00;;;;5032551;28;20672;-74
2023/03/22 07:15:23;;;;;;;0.10;0.10;;;9.10;99.90;28.80;99918.00;;;;5015448;28;20213;-74
2023/03/22 07:18:00;;;;;;;0.10;0.10;;;9.10;99.90;28.80;99851.00;;;;5013933;28;20229;-74
2023/03/22 07:20:35;;;;;;;0.10;0.10;;;9.20;99.90;28.90;99866.00;;;;5014158;28;20202;-75
2023/03/22 07:23:04;;;;;;;0.10;0.10;;;9.30;99.90;28.90;99878.00;;;;5013924;28;20230;-75
2023/03/22 07:25:43;;;;;;;0.10;0.10;;;9.40;99.90;29.00;99881.00;;;;5029467;28;20199;-75
2023/03/22 07:28:26;;;;;;;0.10;0.10;;;9.50;99.90;29.10;100028.00;;;;5006595;28;20203;-74
2023/03/22 07:31:01;;;;;;;0.10;0.10;;;9.70;99.90;29.20;100051.00;;;;5018543;28;20214;-75
2023/03/22 07:33:35;;;;;;;0.00;0.00;;;9.80;99.90;29.20;100040.00;;;;5007825;28;20202;-75
2023/03/22 07:36:03;;;;;;;0.10;0.10;;;9.90;99.90;29.30;99965.00;;;;5013739;28;20199;-75
2023/03/22 07:38:32;;;;;;;0.10;0.10;;;9.90;99.90;29.30;100068.00;;;;5013881;28;20205;-75
2023/03/22 07:41:00;;;;;;;0.10;0.10;;;10.00;99.90;29.40;99917.00;;;;5010862;28;20205;-75
2023/03/22 07:43:41;;;;;;;0.10;0.10;;;10.10;99.90;29.40;100091.00;;;;5010410;28;20250;-74
2023/03/22 07:46:23;;;;;;;0.10;0.10;;;10.10;99.90;29.40;100361.00;;;;5006392;28;20555;-75
2023/03/22 07:49:18;;;;;;;0.10;0.10;;;10.20;99.90;29.50;100068.00;;;;5022254;28;20219;-74
2023/03/22 07:52:07;;;;;;;0.10;0.10;;;10.30;99.90;29.60;100012.00;;;;5013823;28;20219;-76
2023/03/22 07:54:35;;;;;;;0.10;0.10;;;10.30;99.90;29.60;99989.00;;;;5012137;28;20292;-76
2023/03/22 07:57:06;;;;;;;0.10;0.10;;;10.40;99.90;29.70;99923.00;;;;5009904;28;20550;-77
2023/03/22 07:59:39;;;;;;;0.10;0.10;;;10.40;99.90;29.70;99967.00;;;;5013426;28;20195;-76
2023/03/22 08:02:09;;;;;;;0.10;0.10;;;10.50;99.90;29.70;100035.00;;;;5012751;28;20235;-77
2023/03/22 08:04:45;;;;;;;0.10;0.10;;;10.60;99.90;29.80;100115.00;;;;5034826;28;20640;-77
2023/03/22 08:07:29;;;;;;;0.10;0.10;;;10.70;99.90;29.80;100219.00;;;;5001610;28;20207;-77
2023/03/22 08:09:57;;;;;;;0.10;0.10;;;10.80;99.90;29.90;100083.00;;;;5005332;28;20196;-74
2023/03/22 08:12:27;;;;;;;0.10;0.10;;;10.80;99.90;30.00;100160.00;;;;5015652;28;20689;-74
2023/03/22 08:15:07;;;;;;;0.10;0.10;;;10.90;99.90;30.00;100177.00;;;;5014400;28;20195;-74
2023/03/22 08:17:36;;;;;;;0.10;0.10;;;11.10;99.90;30.10;100214.00;;;;5014268;28;20234;-74
2023/03/22 08:20:11;;;;;;;0.10;0.10;;;11.20;99.90;30.30;100191.00;;;;5005970;28;20196;-74
2023/03/22 08:22:46;;;;;;;0.10;0.10;;;11.30;99.90;30.30;100198.00;;;;5012831;28;20230;-74
2023/03/22 08:25:34;;;;;;;0.10;0.10;;;11.40;99.90;30.40;100195.00;;;;5024793;28;20199;-75
2023/03/22 08:28:09;;;;;;;0.10;0.10;;;11.60;99.90;30.50;100223.00;;;;5015920;28;20568;-74
2023/03/22 08:30:37;;;;;;;0.10;0.10;;;11.70;99.90;30.60;100282.00;;;;5012900;28;20234;-74
2023/03/22 08:33:06;;;;;;;0.10;0.10;;;11.80;99.90;30.70;100349.00;;;;5006320;28;20218;-74
2023/03/22 08:35:35;;;;;;;0.10;0.10;;;12.00;99.90;30.70;100311.00;;;;5014283;28;20195;-76
2023/03/22 08:38:04;;;;;;;0.10;0.10;;;12.10;99.90;30.70;100376.00;;;;5031738;28;20203;-76
2023/03/22 08:40:40;;;;;;;0.10;0.10;;;12.00;99.90;30.70;100310.00;;;;5016880;28;20194;-76
2023/03/22 08:43:08;;;;;;;0.10;0.10;;;12.10;99.90;30.80;100307.00;;;;5018884;28;20309;-76
2023/03/22 08:45:37;;;;;;;0.08;0.08;;;12.20;99.90;30.90;100104.00;;;;5040036;28;20187;-77
2023/03/22 08:48:11;;;;;;;0.10;0.10;;;12.30;99.90;31.00;100097.00;;;;5033421;28;20194;-74
2023/03/22 08:51:21;;;;;;;0.10;0.10;;;12.40;99.90;31.00;100090.00;;;;5019860;28;20714;-74
2023/03/22 08:54:19;;;;;;;0.10;0.10;;;12.50;99.90;31.10;100296.00;;;;5029431;28;20202;-74
2023/03/22 08:57:08;;;;;;;0.10;0.10;;;12.60;99.90;31.20;100019.00;;;;5034072;28;20292;-74
2023/03/22 08:59:48;;;;;;;0.08;0.08;;;12.70;99.90;31.20;100052.00;;;;5016706;28;20202;-75
2023/03/22 09:02:25;;;;;;;0.10;0.10;;;12.70;99.90;31.20;100120.00;;;;5013381;28;20230;-76
2023/03/22 09:04:54;;;;;;;0.10;0.10;;;12.70;99.90;31.30;99859.00;;;;5016464;28;20253;-74
2023/03/22 09:07:24;;;;;;;0.00;0.00;;;12.80;99.90;31.40;99921.00;;;;5008866;28;20203;-74
2023/03/22 09:10:07;;;;;;;0.05;0.05;;;12.90;99.90;31.50;99960.00;;;;5009371;28;20215;-74
2023/03/22 09:12:38;;;;;;;0.10;0.10;;;13.10;99.90;31.50;99818.00;;;;5033404;28;20231;-74
2023/03/22 09:15:08;;;;;;;0.10;0.10;;;13.00;99.90;31.40;99835.00;;;;5011249;28;20215;-75
2023/03/22 09:17:39;;;;;;;0.00;0.00;;;13.00;99.90;31.40;99810.00;;;;5032304;28;20208;-74
2023/03/22 09:20:08;;;;;;;0.00;0.00;;;13.00;99.90;31.50;99826.00;;;;5034080;28;20187;-75
2023/03/22 09:22:43;;;;;;;0.00;0.00;;;13.10;99.90;31.50;99847.00;;;;5016222;28;20246;-75
2023/03/22 09:25:14;;;;;;;0.10;0.10;;;13.10;99.90;31.50;99736.00;;;;5021033;28;20645;-75
2023/03/22 09:27:44;;;;;;;0.10;0.10;;;13.10;99.90;31.50;99738.00;;;;5015688;28;20199;-76
2023/03/22 09:30:13;;;;;;;0.10;0.10;;;13.10;99.90;31.60;99869.00;;;;5033807;28;20218;-75
2023/03/22 09:32:42;;;;;;;0.10;0.10;;;13.20;99.90;31.60;99843.00;;;;5015709;28;20226;-75
2023/03/22 09:35:12;;;;;;;0.10;0.10;;;13.20;99.90;31.70;99720.00;;;;5033190;28;20613;-75
2023/03/22 09:37:54;;;;;;;0.00;0.00;;;13.30;99.90;31.70;99391.00;;;;5017624;28;20226;-75
2023/03/22 09:40:28;;;;;;;0.00;0.00;;;13.20;99.90;31.80;99506.00;;;;5005413;28;20670;-75
2023/03/22 09:43:02;;;;;;;0.10;0.10;;;13.40;99.90;31.90;99483.00;;;;5007485;28;20231;-75
2023/03/22 09:45:38;;;;;;;0.10;0.10;;;13.50;99.90;31.90;99411.00;;;;5031606;28;20265;-75
2023/03/22 09:48:17;;;;;;;0.10;0.10;;;13.50;99.90;31.90;99410.00;;;;5032594;28;20305;-75
2023/03/22 09:50:50;;;;;;;0.00;0.00;;;13.60;99.90;32.00;99453.00;;;;5033219;28;20682;-75
2023/03/22 09:53:22;;;;;;;0.10;0.10;;;13.70;99.90;32.10;99549.00;;;;5033426;28;20312;-75
2023/03/22 09:55:56;;;;;;;0.00;0.00;;;13.80;99.90;32.10;99544.00;;;;5032742;28;20319;-75
2023/03/22 09:58:33;;;;;;;0.10;0.10;;;13.80;99.90;32.00;99774.00;;;;5025884;28;20669;-75
2023/03/22 10:01:11;;;;;;;0.10;0.10;;;13.70;99.90;32.00;99540.00;;;;5033068;28;20209;-75
2023/03/22 10:04:10;;;;;;;0.08;0.08;;;13.70;99.90;31.90;99811.00;;;;5032954;28;20293;-75
2023/03/22 10:06:44;;;;;;;0.08;0.08;;;13.60;99.90;31.90;99891.00;;;;5027863;28;20653;-75
2023/03/22 10:09:22;;;;;;;0.00;0.00;;;13.70;99.90;32.00;99447.00;;;;5032750;28;20230;-75
2023/03/22 10:11:59;;;;;;;0.10;0.10;;;13.70;99.90;32.10;99362.00;;;;5032727;28;20223;-75
2023/03/22 10:14:33;;;;;;;0.10;0.10;;;13.80;99.90;32.10;99335.00;;;;5030875;28;20281;-75
2023/03/22 10:17:08;;;;;;;0.10;0.10;;;13.80;99.90;32.20;99495.00;;;;5035165;28;20556;-75
2023/03/22 10:19:50;;;;;;;0.00;0.00;;;13.90;99.90;32.10;99717.00;;;;5037060;28;20676;-75
2023/03/22 10:22:24;;;;;;;0.00;0.00;;;13.90;99.90;32.10;99483.00;;;;5033310;28;20231;-75
2023/03/22 10:24:54;;;;;;;0.00;0.00;;;13.80;99.90;32.10;99347.00;;;;5027995;28;20254;-75
2023/03/22 10:27:26;;;;;;;0.10;0.10;;;13.80;99.90;32.20;99549.00;;;;5032872;28;20209;-75
2023/03/22 10:30:00;;;;;;;0.10;0.10;;;13.90;99.90;32.20;99400.00;;;;5032860;28;20690;-75
2023/03/22 10:32:38;;;;;;;0.10;0.10;;;14.00;99.90;32.20;99466.00;;;;5044913;28;20225;-75
2023/03/22 10:35:23;;;;;;;0.10;0.10;;;14.00;99.90;32.30;99368.00;;;;5024366;28;20203;-75
2023/03/22 10:37:52;;;;;;;0.00;0.00;;;14.00;99.90;32.40;99217.00;;;;5031538;28;20191;-75
2023/03/22 10:40:28;;;;;;;0.10;0.10;;;14.10;99.90;32.40;99167.00;;;;5035594;28;20195;-75
2023/03/22 10:43:02;;;;;;;0.10;0.10;;;14.10;99.90;32.60;99541.00;;;;5023986;28;20265;-75
2023/03/22 10:45:34;;;;;;;0.00;0.00;;;14.50;99.90;32.70;99597.00;;;;5033357;28;20264;-75
2023/03/22 10:48:09;;;;;;;0.00;0.00;;;14.70;99.90;32.60;99811.00;;;;5037449;28;20207;-75
2023/03/22 10:50:43;;;;;;;0.00;0.00;;;14.60;99.90;32.70;99612.00;;;;5032484;28;20230;-74
2023/03/22 10:53:23;;;;;;;0.10;0.10;;;14.70;99.90;32.70;99691.00;;;;5015399;28;20218;-75
2023/03/22 10:55:53;;;;;;;0.00;0.00;;;14.70;99.90;32.80;99601.00;;;;5032163;28;20890;-75
2023/03/22 10:58:23;;;;;;;0.00;0.00;;;14.80;99.90;32.90;99715.00;;;;5024363;28;20743;-75
2023/03/22 11:00:53;;;;;;;0.00;0.00;;;14.90;99.90;33.00;99793.00;;;;5036731;28;20601;-75
2023/03/22 11:03:30;;;;;;;0.00;0.00;;;15.00;99.90;33.00;99725.00;;;;5024419;28;20214;-75
2023/03/22 11:06:02;;;;;;;0.10;0.10;;;15.10;99.90;33.20;99362.00;;;;5032154;28;20226;-75
2023/03/22 11:08:40;;;;;;;0.00;0.00;;;15.30;99.90;33.50;99471.00;;;;5031898;28;20214;-75
2023/03/22 11:11:19;;;;;;;0.00;0.00;;;15.70;99.90;33.60;99474.00;;;;5031775;28;20222;-75
2023/03/22 11:14:01;;;;;;;0.00;0.00;;;15.70;99.90;33.80;99251.00;;;;5031761;28;20217;-75
2023/03/22 11:16:30;;;;;;;0.00;0.00;;;16.00;99.90;34.00;99418.00;;;;5024892;28;20634;-75
2023/03/22 11:19:01;;;;;;;0.03;0.03;;;16.30;99.90;33.90;99458.00;;;;5032137;28;20203;-75
2023/03/22 11:21:33;;;;;;;0.03;0.03;;;16.20;99.90;34.00;99226.00;;;;5031831;28;20584;-75
2023/03/22 11:24:05;;;;;;;0.00;0.00;;;16.20;99.90;34.10;99289.00;;;;5031452;28;20210;-75
2023/03/22 11:26:37;;;;;;;0.00;0.00;;;16.40;99.90;34.40;99273.00;;;;5031371;28;20209;-75
2023/03/22 11:29:16;;;;;;;0.00;0.00;;;16.80;99.90;34.30;99182.00;;;;5031576;28;20202;-75